createdAt,value
2023-04-16T00:02:04.203Z,97607.37
2023-04-16T00:05:47.885Z,97601.09
2023-04-16T00:09:12.404Z,97600.09
2023-04-16T00:13:09.047Z,97605.52
2023-04-16T00:16:35.638Z,97604.63
2023-04-16T00:20:29.964Z,97607.52
2023-04-16T00:23:55.386Z,97609.95
2023-04-16T00:27:52.346Z,97612.27
2023-04-16T00:31:16.505Z,97617.51
2023-04-16T00:35:13.333Z,97622.00
2023-04-16T00:38:37.462Z,97624.70
2023-04-16T00:42:15.317Z,97620.77
2023-04-16T00:46:12.406Z,97624.95
2023-04-16T00:49:56.150Z,97628.93
2023-04-16T00:53:20.699Z,97626.85
2023-04-16T00:56:59.834Z,97633.14
2023-04-16T01:00:36.349Z,97628.88
2023-04-16T01:04:33.438Z,97628.91
2023-04-16T01:08:01.309Z,97626.11
2023-04-16T01:11:54.378Z,97632.14
2023-04-16T01:15:18.722Z,97632.36
2023-04-16T01:19:15.283Z,97633.17
2023-04-16T01:22:42.831Z,97640.13
2023-04-16T01:26:17.573Z,97646.73
2023-04-16T01:30:14.664Z,97644.85
2023-04-16T01:34:21.011Z,97638.70
2023-04-16T01:38:05.619Z,97641.58
2023-04-16T01:41:33.393Z,97647.58
2023-04-16T01:45:26.861Z,97643.87
2023-04-16T01:48:55.990Z,97647.13
2023-04-16T01:52:48.587Z,97648.16
2023-04-16T01:56:33.153Z,97652.71
2023-04-16T02:00:43.549Z,97655.48
2023-04-16T02:04:27.172Z,97661.60
2023-04-16T02:08:12.797Z,97666.46
2023-04-16T02:11:43.467Z,97667.11
2023-04-16T02:15:38.843Z,97665.80
2023-04-16T02:19:29.262Z,97665.83
2023-04-16T02:23:15.457Z,97672.23
2023-04-16T02:27:03.195Z,97674.16
2023-04-16T02:30:47.793Z,97671.91
2023-04-16T02:34:13.187Z,97675.75
2023-04-16T02:37:51.782Z,97683.42
2023-04-16T02:41:28.610Z,97689.30
2023-04-16T02:45:08.489Z,97693.73
2023-04-16T02:48:43.907Z,97699.71
2023-04-16T02:52:40.526Z,97705.90
2023-04-16T02:56:07.000Z,97707.45
2023-04-16T03:00:03.690Z,97702.34
2023-04-16T03:03:47.351Z,97704.11
2023-04-16T03:07:13.016Z,97705.36
2023-04-16T03:10:50.294Z,97704.75
2023-04-16T03:14:46.592Z,97705.36
2023-04-16T03:18:11.877Z,97707.22
2023-04-16T03:22:08.443Z,97706.69
2023-04-16T03:25:32.698Z,97709.05
2023-04-16T03:29:29.135Z,97708.20
2023-04-16T03:32:53.841Z,97706.38
2023-04-16T03:36:50.294Z,97706.83
2023-04-16T03:40:15.448Z,97711.16
2023-04-16T03:43:52.571Z,97717.71
2023-04-16T03:47:30.395Z,97724.03
2023-04-16T03:51:07.920Z,97728.28
2023-04-16T03:54:45.888Z,97735.84
2023-04-16T03:58:47.761Z,97748.84
2023-04-16T04:02:11.938Z,97758.27
2023-04-16T04:06:10.363Z,97764.84
2023-04-16T04:09:35.830Z,97769.47
2023-04-16T04:13:32.011Z,97775.71
2023-04-16T04:16:57.210Z,97776.00
2023-04-16T04:20:57.206Z,97778.44
2023-04-16T04:24:24.357Z,97788.02
2023-04-16T04:28:21.435Z,97787.75
2023-04-16T04:31:46.280Z,97783.34
2023-04-16T04:35:43.804Z,97784.17
2023-04-16T04:39:28.672Z,97791.08
2023-04-16T04:42:57.790Z,97794.47
2023-04-16T04:46:31.260Z,97795.73
2023-04-16T04:50:27.795Z,97798.07
2023-04-16T04:53:54.250Z,97803.94
2023-04-16T04:57:49.463Z,97805.54
2023-04-16T05:01:15.085Z,97808.81
2023-04-16T05:04:52.567Z,97807.89
2023-04-16T05:08:50.765Z,97809.94
2023-04-16T05:12:18.739Z,97817.33
2023-04-16T05:16:12.867Z,97820.11
2023-04-16T05:19:37.027Z,97822.36
2023-04-16T05:23:15.770Z,97829.63
2023-04-16T05:27:11.368Z,97831.12
2023-04-16T05:30:54.368Z,97840.23
2023-04-16T05:34:37.250Z,97845.61
2023-04-16T05:38:01.359Z,97848.45
2023-04-16T05:41:58.102Z,97850.32
2023-04-16T05:45:41.501Z,97849.65
2023-04-16T05:49:05.415Z,97852.73
2023-04-16T05:52:43.224Z,97854.77
2023-04-16T05:56:40.429Z,97857.67
2023-04-16T06:00:23.804Z,97859.37
2023-04-16T06:03:47.899Z,97859.27
2023-04-16T06:07:44.592Z,97867.48
2023-04-16T06:11:09.581Z,97870.66
2023-04-16T06:14:48.201Z,97873.63
2023-04-16T06:18:24.527Z,97886.73
2023-04-16T06:22:27.247Z,97895.70
2023-04-16T06:25:51.766Z,97899.23
2023-04-16T06:29:51.477Z,97907.67
2023-04-16T06:33:34.850Z,97910.30
2023-04-16T06:36:59.266Z,97910.70
2023-04-16T06:40:37.625Z,97916.55
2023-04-16T06:44:15.077Z,97914.14
2023-04-16T06:47:55.362Z,97916.55
2023-04-16T06:51:50.795Z,97915.79
2023-04-16T06:55:15.090Z,97919.48
2023-04-16T06:59:11.850Z,97917.89
2023-04-16T07:02:58.288Z,97923.44
2023-04-16T07:06:23.657Z,97925.75
2023-04-16T07:10:20.051Z,97926.83
2023-04-16T07:13:44.166Z,97934.23
2023-04-16T07:17:40.643Z,97934.50
2023-04-16T07:21:24.129Z,97935.92
2023-04-16T07:25:08.317Z,97937.05
2023-04-16T07:28:52.268Z,97937.08
2023-04-16T07:32:17.946Z,97943.11
2023-04-16T07:36:13.471Z,97945.71
2023-04-16T07:39:57.410Z,97948.27
2023-04-16T07:43:41.056Z,97947.93
2023-04-16T07:47:05.876Z,97945.48
2023-04-16T07:51:02.212Z,97951.02
2023-04-16T07:54:29.181Z,97954.45
2023-04-16T07:58:28.418Z,97955.73
2023-04-16T08:01:54.632Z,97964.95
2023-04-16T08:05:51.106Z,97956.12
2023-04-16T08:09:38.975Z,97959.23
2023-04-16T08:13:03.889Z,97971.05
2023-04-16T08:17:00.218Z,97970.48
2023-04-16T08:20:25.009Z,97973.16
2023-04-16T08:24:22.721Z,97976.61
2023-04-16T08:27:48.121Z,97978.70
2023-04-16T08:31:26.061Z,97986.81
2023-04-16T08:35:04.563Z,97990.39
2023-04-16T08:38:41.165Z,97999.35
2023-04-16T08:42:52.407Z,98007.95
2023-04-16T08:46:26.704Z,98009.55
2023-04-16T08:50:25.324Z,98011.33
2023-04-16T08:53:59.787Z,98019.84
2023-04-16T08:57:51.588Z,98023.36
2023-04-16T09:01:37.836Z,98027.55
2023-04-16T09:05:27.442Z,98033.13
2023-04-16T09:08:54.328Z,98035.83
2023-04-16T09:12:49.751Z,98039.35
2023-04-16T09:16:17.184Z,98042.20
2023-04-16T09:20:13.719Z,98039.40
2023-04-16T09:23:59.605Z,98044.08
2023-04-16T09:27:50.055Z,98047.66
2023-04-16T09:31:38.228Z,98042.36
2023-04-16T09:35:23.708Z,98052.96
2023-04-16T09:38:51.494Z,98049.44
2023-04-16T09:42:32.789Z,98052.29
2023-04-16T09:46:29.108Z,98059.83
2023-04-16T09:50:18.593Z,98054.49
2023-04-16T09:54:04.952Z,98059.40
2023-04-16T09:57:30.832Z,98057.48
2023-04-16T10:01:12.090Z,98059.04
2023-04-16T10:04:46.878Z,98063.56
2023-04-16T10:08:25.146Z,98063.56
2023-04-16T10:12:02.116Z,98067.99
2023-04-16T10:15:39.348Z,98063.48
2023-04-16T10:19:37.698Z,98063.59
2023-04-16T10:23:02.290Z,98065.14
2023-04-16T10:26:59.806Z,98064.10
2023-04-16T10:30:26.312Z,98061.31
2023-04-16T10:34:25.200Z,98064.87
2023-04-16T10:38:26.213Z,98061.95
2023-04-16T10:42:07.088Z,98064.27
2023-04-16T10:45:42.425Z,98064.84
2023-04-16T10:49:30.408Z,98060.39
2023-04-16T10:53:22.832Z,98063.07
2023-04-16T10:57:09.963Z,98066.38
2023-04-16T11:00:52.056Z,98068.69
2023-04-16T11:04:22.776Z,98077.60
2023-04-16T11:08:17.294Z,98082.38
2023-04-16T11:12:07.636Z,98084.69
2023-04-16T11:15:51.098Z,98085.61
2023-04-16T11:19:37.787Z,98085.70
2023-04-16T11:23:05.832Z,98086.80
2023-04-16T11:27:01.081Z,98082.17
2023-04-16T11:30:31.514Z,98087.95
2023-04-16T11:34:08.585Z,98090.45
2023-04-16T11:38:01.630Z,98089.72
2023-04-16T11:41:26.221Z,98086.73
2023-04-16T11:45:22.211Z,98081.95
2023-04-16T11:48:51.991Z,98081.36
2023-04-16T11:52:45.087Z,98079.52
2023-04-16T11:56:12.184Z,98074.98
2023-04-16T12:00:01.599Z,98071.06
2023-04-16T12:03:46.996Z,98072.19
2023-04-16T12:07:17.714Z,98075.52
2023-04-16T12:10:56.038Z,98075.24
2023-04-16T12:14:33.191Z,98077.25
2023-04-16T12:18:30.497Z,98078.36
2023-04-16T12:22:13.807Z,98079.05
2023-04-16T12:26:01.653Z,98077.52
2023-04-16T12:29:44.628Z,98075.61
2023-04-16T12:33:28.460Z,98069.85
2023-04-16T12:37:11.184Z,98066.62
2023-04-16T12:40:37.031Z,98065.08
2023-04-16T12:44:18.221Z,98064.59
2023-04-16T12:47:52.601Z,98063.35
2023-04-16T12:51:29.974Z,98061.86
2023-04-16T12:55:26.751Z,98062.36
2023-04-16T12:58:51.924Z,98057.42
2023-04-16T13:02:29.594Z,98058.58
2023-04-16T13:06:07.426Z,98054.42
2023-04-16T13:09:44.907Z,98054.25
2023-04-16T13:13:40.558Z,98056.06
2023-04-16T13:17:23.854Z,98055.23
2023-04-16T13:20:49.935Z,98056.61
2023-04-16T13:24:47.810Z,98056.61
2023-04-16T13:28:11.745Z,98056.55
2023-04-16T13:31:49.604Z,98054.00
2023-04-16T13:35:27.387Z,98045.74
2023-04-16T13:39:23.732Z,98048.66
2023-04-16T13:43:07.796Z,98050.85
2023-04-16T13:46:32.719Z,98045.91
2023-04-16T13:50:30.369Z,98040.48
2023-04-16T13:53:57.201Z,98043.20
2023-04-16T13:57:36.450Z,98039.06
2023-04-16T14:01:30.262Z,98038.85
2023-04-16T14:05:13.423Z,98039.58
2023-04-16T14:08:56.662Z,98037.95
2023-04-16T14:12:40.470Z,98039.71
2023-04-16T14:16:04.826Z,98040.04
2023-04-16T14:19:42.125Z,98037.58
2023-04-16T14:23:19.932Z,98037.33
2023-04-16T14:27:19.531Z,98040.81
2023-04-16T14:31:02.803Z,98040.05
2023-04-16T14:34:27.351Z,98039.73
2023-04-16T14:38:24.163Z,98037.73
2023-04-16T14:42:08.033Z,98039.35
2023-04-16T14:45:32.769Z,98040.63
2023-04-16T14:49:12.466Z,98037.79
2023-04-16T14:52:47.882Z,98039.27
2023-04-16T14:56:45.762Z,98042.17
2023-04-16T15:00:29.354Z,98046.16
2023-04-16T15:04:14.652Z,98045.70
2023-04-16T15:07:42.672Z,98040.51
2023-04-16T15:11:38.136Z,98040.23
2023-04-16T15:15:02.668Z,98044.80
2023-04-16T15:18:59.141Z,98044.48
2023-04-16T15:22:42.494Z,98045.27
2023-04-16T15:26:07.200Z,98042.23
2023-04-16T15:29:47.714Z,98046.85
2023-04-16T15:33:41.139Z,98048.98
2023-04-16T15:37:05.729Z,98049.84
2023-04-16T15:40:43.243Z,98052.02
2023-04-16T15:44:24.343Z,98053.13
2023-04-16T15:47:58.618Z,98050.05
2023-04-16T15:51:36.586Z,98050.45
2023-04-16T15:55:34.177Z,98053.99
2023-04-16T15:59:17.753Z,98060.90
2023-04-16T16:03:04.317Z,98061.80
2023-04-16T16:06:29.296Z,98063.29
2023-04-16T16:10:25.414Z,98069.05
2023-04-16T16:14:09.690Z,98070.20
2023-04-16T16:17:36.201Z,98071.20
2023-04-16T16:21:12.587Z,98075.75
2023-04-16T16:24:52.758Z,98074.95
2023-04-16T16:28:29.316Z,98080.23
2023-04-16T16:45:21.021Z,98087.20
2023-04-16T16:48:58.487Z,98088.90
2023-04-16T16:52:54.312Z,98090.72
2023-04-16T16:56:18.744Z,98092.08
2023-04-16T17:00:16.323Z,98095.96
2023-04-16T17:03:41.538Z,98097.98
2023-04-16T17:07:25.014Z,98095.46
2023-04-16T17:10:56.469Z,98103.53
2023-04-16T17:14:37.252Z,98106.70
2023-04-16T17:18:30.678Z,98107.98
2023-04-16T17:22:13.592Z,98114.73
2023-04-16T17:25:37.843Z,98119.52
2023-04-16T17:29:34.270Z,98126.65
2023-04-16T17:32:59.136Z,98129.22
2023-04-16T17:36:36.918Z,98130.21
2023-04-16T17:40:32.985Z,98137.27
2023-04-16T17:43:57.318Z,98140.05
2023-04-16T17:47:54.412Z,98141.72
2023-04-16T17:51:37.778Z,98142.85
2023-04-16T17:55:06.014Z,98147.17
2023-04-16T17:58:41.119Z,98147.73
2023-04-16T18:02:39.907Z,98148.75
2023-04-16T18:06:23.349Z,98157.67
2023-04-16T18:10:08.713Z,98159.14
2023-04-16T18:13:54.467Z,98166.73
2023-04-16T18:17:21.923Z,98170.81
2023-04-16T18:20:57.280Z,98176.94
2023-04-16T18:24:54.403Z,98176.59
2023-04-16T18:28:22.697Z,98182.48
2023-04-16T18:31:59.284Z,98185.73
2023-04-16T18:35:36.371Z,98192.91
2023-04-16T18:39:33.171Z,98193.83
2023-04-16T18:43:17.458Z,98199.30
2023-04-16T18:46:41.889Z,98202.10
2023-04-16T18:50:19.288Z,98209.47
2023-04-16T18:54:19.166Z,98208.52
2023-04-16T18:57:43.853Z,98208.83
2023-04-16T19:01:40.607Z,98208.95
2023-04-16T19:05:05.383Z,98210.17
2023-04-16T19:09:01.672Z,98213.14
2023-04-16T19:12:44.894Z,98213.86
2023-04-16T19:16:29.062Z,98210.57
2023-04-16T19:19:53.575Z,98211.43
2023-04-16T19:23:50.095Z,98214.17
2023-04-16T19:27:16.254Z,98216.01
2023-04-16T19:30:56.295Z,98216.39
2023-04-16T19:34:49.107Z,98217.13
2023-04-16T19:38:32.441Z,98216.23
2023-04-16T19:42:18.111Z,98213.70
2023-04-16T19:45:47.409Z,98216.27
2023-04-16T19:49:25.264Z,98214.02
2023-04-16T19:53:21.099Z,98217.55
2023-04-16T19:57:04.286Z,98220.20
2023-04-16T20:00:28.570Z,98220.48
2023-04-16T20:04:25.208Z,98219.48
2023-04-16T20:07:51.271Z,98221.33
2023-04-16T20:11:27.297Z,98222.52
2023-04-16T20:15:26.739Z,98222.02
2023-04-16T20:18:55.915Z,98224.13
2023-04-16T20:22:28.690Z,98222.02
2023-04-16T20:26:06.231Z,98217.23
2023-04-16T20:29:43.860Z,98220.34
2023-04-16T20:33:24.587Z,98221.38
2023-04-16T20:37:18.500Z,98224.23
2023-04-16T20:40:44.675Z,98221.10
2023-04-16T20:44:26.146Z,98221.99
2023-04-16T20:48:02.449Z,98219.51
2023-04-16T20:51:37.270Z,98217.40
2023-04-16T20:55:13.172Z,98218.36
2023-04-16T20:58:54.692Z,98219.79
2023-04-16T21:02:50.719Z,98220.89
2023-04-16T21:06:39.404Z,98221.63
2023-04-16T21:10:24.850Z,98218.71
2023-04-16T21:13:49.711Z,98222.28
2023-04-16T21:17:27.059Z,98222.38
2023-04-16T21:21:25.182Z,98224.77
2023-04-16T21:24:49.262Z,98223.33
2023-04-16T21:28:46.060Z,98225.20
2023-04-16T21:32:09.856Z,98222.75
2023-04-16T21:35:52.423Z,98218.60
2023-04-16T21:39:30.337Z,98210.70
2023-04-16T21:43:22.937Z,98208.23
2023-04-16T21:47:06.426Z,98208.00
2023-04-16T21:50:35.730Z,98207.68
2023-04-16T21:54:09.179Z,98208.79
2023-04-16T21:57:49.471Z,98212.30
2023-04-16T22:01:43.366Z,98211.91
2023-04-16T22:05:08.246Z,98215.70
2023-04-16T22:08:45.241Z,98211.98
2023-04-16T22:12:45.251Z,98212.80
2023-04-16T22:16:28.480Z,98210.06
2023-04-16T22:20:12.479Z,98210.08
2023-04-16T22:23:36.756Z,98211.92
2023-04-16T22:27:16.007Z,98210.30
2023-04-16T22:31:10.939Z,98210.16
2023-04-16T22:34:57.652Z,98211.15
2023-04-16T22:38:43.814Z,98205.63
2023-04-16T22:42:29.205Z,98205.57
2023-04-16T22:46:04.653Z,98209.19
2023-04-16T22:49:50.655Z,98211.39
2023-04-16T22:53:37.732Z,98209.55
2023-04-16T22:57:25.162Z,98210.65
2023-04-16T23:01:10.231Z,98214.75
2023-04-16T23:09:07.525Z,98213.60
2023-04-16T23:12:32.364Z,98212.81
2023-04-16T23:16:09.940Z,98213.31
2023-04-16T23:20:09.394Z,98213.45
2023-04-16T23:23:52.257Z,98209.77
2023-04-16T23:27:18.854Z,98212.33
2023-04-16T23:30:56.089Z,98204.91
2023-04-16T23:34:33.264Z,98204.02
2023-04-16T23:38:10.896Z,98202.11
2023-04-16T23:41:48.668Z,98198.02
2023-04-16T23:45:26.372Z,98195.95
2023-04-16T23:49:23.118Z,98195.57
2023-04-16T23:53:06.765Z,98194.92
2023-04-16T23:56:31.351Z,98196.20
